Time;durP1;ratioP1;P1;durP2;ratioP2;P2;SDS_P1;SDS_P2;PMS_P1;PMS_P2;Temp;Humidity;BMP_temperature;BMP_pressure;BME280_temperature;BME280_humidity;BME280_pressure;Samples;Min_cycle;Max_cycle;Signal;HPM_P1;HPM_P2
2021/07/24 20:01:06;;;;;;;7.95;7.20;;;;;;;18.14;64.77;93628.91;5029841;28;1385343;-49
2021/07/24 20:03:36;;;;;;;9.30;7.03;;;;;;;18.00;64.59;93613.94;5068617;28;20040;-48
2021/07/24 20:06:02;;;;;;;7.13;6.15;;;;;;;18.01;64.08;93625.88;5068459;28;20032;-50
2021/07/24 20:08:27;;;;;;;16.85;7.90;;;;;;;18.02;63.92;93622.47;5073798;28;20039;-47
2021/07/24 20:10:53;;;;;;;8.52;7.05;;;;;;;17.96;64.05;93629.69;5075435;28;20070;-48
2021/07/24 20:13:18;;;;;;;7.47;6.78;;;;;;;17.92;64.36;93629.41;5075944;28;20048;-49
2021/07/24 20:15:43;;;;;;;10.50;8.05;;;;;;;17.86;64.52;93624.16;5077776;28;20138;-47
2021/07/24 20:18:09;;;;;;;7.57;6.88;;;;;;;17.86;65.08;93629.00;5075120;28;20500;-48
2021/07/24 20:20:34;;;;;;;11.20;7.47;;;;;;;17.75;64.91;93630.34;5075409;28;20031;-48
2021/07/24 20:23:00;;;;;;;8.13;7.32;;;;;;;17.68;65.18;93634.03;5060367;28;20027;-47
2021/07/24 20:25:25;;;;;;;8.57;6.75;;;;;;;17.59;65.06;93625.66;5075950;28;20020;-49
2021/07/24 20:27:51;;;;;;;7.80;7.10;;;;;;;17.53;65.61;93633.63;5076853;28;20028;-50
2021/07/24 20:30:16;;;;;;;10.10;8.07;;;;;;;17.47;65.56;93625.53;5083992;28;20058;-48
2021/07/24 20:32:42;;;;;;;9.25;6.72;;;;;;;17.36;65.67;93634.50;5087071;28;20036;-49
2021/07/24 20:35:08;;;;;;;11.07;7.30;;;;;;;17.37;65.62;93633.91;5094616;28;20043;-50
2021/07/24 20:37:37;;;;;;;8.68;7.07;;;;;;;17.39;65.38;93639.63;5099316;28;20425;-52
2021/07/24 20:40:05;;;;;;;9.52;7.18;;;;;;;17.41;65.40;93636.28;5099968;28;20577;-50
2021/07/24 20:42:31;;;;;;;7.13;6.43;;;;;;;17.34;65.15;93645.53;5108372;28;20031;-53
2021/07/24 20:44:57;;;;;;;7.38;6.63;;;;;;;17.29;65.02;93649.34;5086469;28;20560;-52
2021/07/24 20:47:22;;;;;;;7.15;6.38;;;;;;;17.18;64.60;93636.72;5078872;28;20024;-54
2021/07/24 20:49:51;;;;;;;6.68;5.97;;;;;;;17.17;65.06;93654.75;5067789;28;20032;-53
2021/07/24 20:52:17;;;;;;;8.00;7.10;;;;;;;17.09;65.70;93653.44;5070239;28;20390;-52
2021/07/24 20:54:42;;;;;;;7.13;6.47;;;;;;;16.94;65.19;93640.53;5108530;28;20053;-56
2021/07/24 20:57:07;;;;;;;8.13;6.63;;;;;;;16.92;65.06;93659.91;5108069;28;20114;-57
2021/07/24 20:59:33;;;;;;;8.02;6.70;;;;;;;16.77;64.88;93639.91;5107775;28;20084;-56
2021/07/24 21:01:59;;;;;;;7.32;6.40;;;;;;;16.73;65.18;93657.09;5107799;28;20044;-57
2021/07/24 21:04:24;;;;;;;6.95;6.22;;;;;;;16.60;65.62;93657.50;5088708;28;20028;-57
2021/07/24 21:06:52;;;;;;;7.65;6.75;;;;;;;16.66;65.66;93658.69;5087925;28;20027;-58
2021/07/24 21:09:18;;;;;;;8.07;6.75;;;;;;;16.66;65.91;93661.47;5088071;28;20126;-58
2021/07/24 21:11:43;;;;;;;8.40;6.40;;;;;;;16.63;66.27;93659.13;5087303;28;20741;-58
2021/07/24 21:14:09;;;;;;;9.40;7.60;;;;;;;16.57;66.16;93658.66;5079537;28;20040;-58
2021/07/24 21:16:34;;;;;;;8.00;7.20;;;;;;;16.43;66.41;93661.09;5072853;28;20433;-57
2021/07/24 21:19:00;;;;;;;8.00;6.22;;;;;;;16.47;66.78;93653.03;5067195;28;20029;-58
2021/07/24 21:21:25;;;;;;;6.53;5.93;;;;;;;16.53;66.22;93656.31;5071011;28;20024;-59
2021/07/24 21:23:51;;;;;;;9.48;6.57;;;;;;;16.49;65.86;93660.81;5098036;28;20048;-55
2021/07/24 21:26:17;;;;;;;6.82;6.20;;;;;;;16.47;66.35;93657.88;5107431;28;20102;-57
2021/07/24 21:28:42;;;;;;;7.55;6.68;;;;;;;16.39;66.19;93668.41;5091275;28;20028;-57
2021/07/24 21:31:08;;;;;;;7.53;6.57;;;;;;;16.36;66.78;93669.56;5099653;28;20144;-57
2021/07/24 21:33:33;;;;;;;7.72;7.03;;;;;;;16.33;66.16;93677.03;5105091;28;20054;-57
2021/07/24 21:36:00;;;;;;;7.75;6.82;;;;;;;16.08;66.84;93647.91;5084753;28;20032;-59
2021/07/24 21:38:25;;;;;;;7.32;6.55;;;;;;;16.29;66.47;93670.41;5066787;28;20040;-58
2021/07/24 21:40:51;;;;;;;9.57;6.85;;;;;;;16.27;66.72;93668.22;5087113;28;20020;-58
2021/07/24 21:43:17;;;;;;;11.88;6.45;;;;;;;16.26;67.40;93669.53;5107899;28;20053;-59
2021/07/24 21:45:42;;;;;;;8.80;6.10;;;;;;;16.17;66.81;93670.25;5108237;28;20484;-58
2021/07/24 21:48:18;;;;;;;9.52;6.75;;;;;;;16.10;66.13;93665.50;5107327;28;20020;-58
2021/07/24 21:50:51;;;;;;;7.97;6.07;;;;;;;16.11;66.33;93672.56;5107475;28;20028;-58
2021/07/24 21:53:26;;;;;;;7.95;6.32;;;;;;;16.06;66.99;93675.59;5106094;28;20038;-58
2021/07/24 21:55:52;;;;;;;11.02;7.28;;;;;;;15.98;67.38;93675.00;5107474;28;20028;-58
2021/07/24 21:58:19;;;;;;;8.35;7.40;;;;;;;15.87;68.02;93671.41;5086965;28;20031;-58
2021/07/24 22:00:45;;;;;;;8.82;7.22;;;;;;;15.83;68.08;93670.38;5104068;28;20054;-58
2021/07/24 22:03:12;;;;;;;11.77;6.80;;;;;;;15.82;67.75;93672.41;5103052;28;20020;-58
2021/07/24 22:05:37;;;;;;;11.10;7.05;;;;;;;15.82;67.63;93674.47;5087204;28;20533;-58
2021/07/24 22:08:07;;;;;;;9.10;6.35;;;;;;;15.82;67.57;93671.66;5087423;28;20036;-58
2021/07/24 22:10:33;;;;;;;7.95;6.95;;;;;;;15.81;67.83;93670.19;5086947;28;20039;-59
2021/07/24 22:13:00;;;;;;;9.50;5.90;;;;;;;15.81;67.25;93668.16;5086526;28;20489;-59
2021/07/24 22:15:29;;;;;;;8.25;5.32;;;;;;;15.81;66.82;93664.63;5085273;28;20059;-59
2021/07/24 22:17:56;;;;;;;6.55;5.88;;;;;;;15.77;67.02;93661.53;5086127;28;20042;-59
2021/07/24 22:20:22;;;;;;;5.97;5.38;;;;;;;15.68;65.85;93656.66;5082545;28;20086;-59
2021/07/24 22:22:48;;;;;;;8.98;5.43;;;;;;;15.56;65.26;93675.19;5068674;28;20029;-59
2021/07/24 22:25:13;;;;;;;7.60;5.68;;;;;;;15.50;65.31;93672.66;5069079;28;20108;-59
2021/07/24 22:27:39;;;;;;;6.70;6.00;;;;;;;15.39;65.80;93667.56;5069036;28;20093;-54
2021/07/24 22:30:06;;;;;;;6.45;5.45;;;;;;;15.32;66.72;93673.97;5069031;28;20033;-59
2021/07/24 22:32:33;;;;;;;7.50;6.28;;;;;;;15.25;67.48;93674.03;5068920;28;20063;-59
2021/07/24 22:35:02;;;;;;;6.32;5.63;;;;;;;15.23;67.50;93679.44;5069006;28;20448;-59
2021/07/24 22:37:28;;;;;;;8.07;6.60;;;;;;;15.14;68.28;93678.78;5069030;28;20463;-59
2021/07/24 22:39:53;;;;;;;9.43;6.40;;;;;;;15.20;68.44;93670.94;5074897;28;20032;-59
2021/07/24 22:42:19;;;;;;;41.65;7.50;;;;;;;15.17;68.85;93679.69;5112203;28;20028;-59
2021/07/24 22:44:44;;;;;;;8.38;6.65;;;;;;;15.13;69.02;93674.56;5112831;28;20104;-59
2021/07/24 22:47:10;;;;;;;9.82;6.43;;;;;;;15.05;69.43;93659.97;5112429;28;20030;-59
2021/07/24 22:49:35;;;;;;;7.38;6.50;;;;;;;15.13;69.00;93668.25;5113023;28;20020;-56
2021/07/24 22:52:01;;;;;;;8.52;6.90;;;;;;;15.11;69.12;93668.84;5106862;28;20473;-50
2021/07/24 22:54:26;;;;;;;8.10;7.28;;;;;;;15.17;69.37;93669.31;5092321;28;20028;-55
2021/07/24 22:56:52;;;;;;;10.93;6.18;;;;;;;15.16;68.58;93665.06;5085475;28;20039;-55
2021/07/24 22:59:18;;;;;;;6.40;5.60;;;;;;;15.17;67.99;93669.31;5085966;28;20035;-56
2021/07/24 23:01:44;;;;;;;7.05;6.03;;;;;;;15.17;67.58;93680.44;5092037;28;20055;-56
2021/07/24 23:04:10;;;;;;;9.80;6.28;;;;;;;15.13;68.28;93673.81;5092382;28;20024;-55
2021/07/24 23:06:36;;;;;;;7.78;5.90;;;;;;;14.97;67.58;93659.34;5092327;28;20050;-55
2021/07/24 23:09:02;;;;;;;7.03;6.13;;;;;;;14.96;68.31;93671.78;5091996;28;20038;-55
2021/07/24 23:11:28;;;;;;;6.45;5.85;;;;;;;14.89;67.45;93672.59;5071574;28;20029;-53
2021/07/24 23:13:53;;;;;;;8.88;6.00;;;;;;;14.91;67.41;93672.75;5071968;28;20032;-54
2021/07/24 23:16:19;;;;;;;8.90;5.95;;;;;;;14.93;67.89;93669.38;5071690;28;20051;-55
2021/07/24 23:18:44;;;;;;;7.75;6.32;;;;;;;14.88;67.90;93670.38;5072487;28;20035;-56
2021/07/24 23:21:10;;;;;;;7.70;6.15;;;;;;;14.81;67.90;93677.47;5087785;28;20107;-57
2021/07/24 23:23:35;;;;;;;7.90;6.30;;;;;;;14.74;67.89;93689.41;5081365;28;20020;-54
2021/07/24 23:26:00;;;;;;;9.25;6.80;;;;;;;14.70;68.67;93683.53;5076867;28;20058;-56
2021/07/24 23:28:26;;;;;;;6.35;5.70;;;;;;;14.68;68.77;93686.16;5090619;28;20418;-55
2021/07/24 23:30:51;;;;;;;9.55;6.25;;;;;;;14.64;68.34;93685.78;5073414;28;20554;-57
2021/07/24 23:33:17;;;;;;;8.65;5.65;;;;;;;14.64;68.46;93685.78;5071273;28;20474;-57
2021/07/24 23:35:42;;;;;;;6.65;5.63;;;;;;;14.63;67.83;93684.34;5088317;28;20027;-51
2021/07/24 23:38:08;;;;;;;7.95;5.97;;;;;;;14.57;68.42;93689.41;5091759;28;20069;-51
2021/07/24 23:40:33;;;;;;;9.70;6.60;;;;;;;14.56;68.61;93684.38;5091504;28;20016;-51
2021/07/24 23:42:59;;;;;;;13.68;7.50;;;;;;;14.41;69.52;93683.22;5091603;28;20028;-54
2021/07/24 23:45:25;;;;;;;6.68;5.95;;;;;;;14.37;69.14;93679.38;5091444;28;20062;-56
2021/07/24 23:47:50;;;;;;;7.45;6.32;;;;;;;14.49;69.35;93683.16;5091396;28;20028;-58
2021/07/24 23:50:16;;;;;;;5.60;5.03;;;;;;;14.50;68.60;93676.28;5091363;28;20076;-53
2021/07/24 23:52:42;;;;;;;7.00;5.50;;;;;;;14.54;68.47;93679.41;5094891;28;20059;-57
2021/07/24 23:55:08;;;;;;;8.38;5.60;;;;;;;14.60;68.15;93674.34;5091510;28;20024;-58
2021/07/24 23:57:34;;;;;;;6.18;5.57;;;;;;;14.53;68.03;93677.19;5091250;28;20084;-55
